createdAt,value
2022-11-06T00:19:55.553Z,59.7
2022-11-06T00:39:55.464Z,59.6
2022-11-06T00:59:55.456Z,59.6
2022-11-06T01:19:55.439Z,59.7
2022-11-06T01:39:55.428Z,59.7
2022-11-06T01:59:55.434Z,59.7
2022-11-06T02:19:55.345Z,59.7
2022-11-06T02:39:55.360Z,59.7
2022-11-06T02:59:55.276Z,59.8
2022-11-06T03:19:55.292Z,59.8
2022-11-06T03:39:55.291Z,59.8
2022-11-06T03:59:55.214Z,59.8
2022-11-06T04:19:55.216Z,59.8
2022-11-06T04:39:55.195Z,59.6
2022-11-06T04:59:55.165Z,59.4
2022-11-06T05:19:55.216Z,59.3
2022-11-06T05:39:55.156Z,59.4
2022-11-06T05:59:55.093Z,59.3
2022-11-06T06:19:55.085Z,59.3
2022-11-06T06:39:55.091Z,59.3
2022-11-06T06:59:55.051Z,59.2
2022-11-06T07:19:54.968Z,59.1
2022-11-06T07:39:55.001Z,59.0
2022-11-06T07:59:54.930Z,59.0
2022-11-06T08:19:54.946Z,58.9
2022-11-06T08:39:54.888Z,58.9
2022-11-06T08:59:54.893Z,58.8
2022-11-06T09:19:54.887Z,58.8
2022-11-06T09:39:54.935Z,56.9
2022-11-06T09:59:54.794Z,57.3
2022-11-06T10:19:54.833Z,57.9
2022-11-06T10:39:54.734Z,58.1
2022-11-06T10:59:54.788Z,58.2
2022-11-06T11:19:54.794Z,58.2
2022-11-06T11:39:54.655Z,58.2
2022-11-06T11:59:54.680Z,58.2
2022-11-06T12:19:54.625Z,58.3
2022-11-06T12:39:54.590Z,58.4
2022-11-06T12:59:54.551Z,58.4
2022-11-06T13:19:54.639Z,58.5
2022-11-06T13:39:54.514Z,58.6
2022-11-06T13:59:54.530Z,57.1
2022-11-06T14:19:54.504Z,56.2
2022-11-06T14:39:54.468Z,55.1
2022-11-06T14:59:54.433Z,54.8
2022-11-06T15:19:54.421Z,54.7
2022-11-06T15:39:54.384Z,54.7
2022-11-06T15:59:54.418Z,54.6
2022-11-06T16:19:54.360Z,54.4
2022-11-06T16:39:54.341Z,55.0
2022-11-06T16:59:54.276Z,53.5
2022-11-06T17:19:54.273Z,54.4
2022-11-06T17:39:54.289Z,54.6
2022-11-06T17:59:54.262Z,54.8
2022-11-06T18:19:54.206Z,55.0
2022-11-06T18:39:54.179Z,55.2
2022-11-06T18:59:54.161Z,55.5
2022-11-06T19:19:54.147Z,55.4
2022-11-06T19:39:54.117Z,55.2
2022-11-06T19:59:54.113Z,55.1
2022-11-06T20:19:54.092Z,54.9
2022-11-06T20:39:54.126Z,54.9
2022-11-06T20:59:53.981Z,54.9
2022-11-06T21:19:53.942Z,54.7
2022-11-06T21:39:53.918Z,55.6
2022-11-06T21:59:53.891Z,56.0
2022-11-06T22:19:53.914Z,56.3
2022-11-06T22:39:53.864Z,56.4
2022-11-06T22:59:53.824Z,56.6
2022-11-06T23:19:53.791Z,56.7
2022-11-06T23:39:53.772Z,56.9
2022-11-06T23:59:53.792Z,57.0
